Time;durP1;ratioP1;P1;durP2;ratioP2;P2;SDS_P1;SDS_P2;PMS_P1;PMS_P2;Temp;Humidity;BMP_temperature;BMP_pressure;BME280_temperature;BME280_humidity;BME280_pressure;Samples;Min_cycle;Max_cycle;Signal;HPM_P1;HPM_P2
2021/12/08 00:01:06;;;;;;;;;;;2.90;99.90;;;;;;5055435;28;19920;-79
2021/12/08 00:03:32;;;;;;;;;;;2.90;99.90;;;;;;5037963;28;19920;-79
2021/12/08 00:05:57;;;;;;;;;;;3.00;99.90;;;;;;5055528;28;19928;-79
2021/12/08 00:08:24;;;;;;;;;;;3.00;99.90;;;;;;5055491;28;19924;-79
2021/12/08 00:13:15;;;;;;;;;;;3.00;99.90;;;;;;5055963;28;19924;-79
2021/12/08 00:15:42;;;;;;;;;;;3.00;99.90;;;;;;5055911;28;19974;-79
2021/12/08 00:18:10;;;;;;;;;;;3.00;99.90;;;;;;5055564;28;20007;-80
2021/12/08 00:20:36;;;;;;;;;;;3.10;99.90;;;;;;5055451;28;20015;-80
2021/12/08 00:23:03;;;;;;;;;;;3.10;99.90;;;;;;5055846;28;19931;-79
2021/12/08 00:25:29;;;;;;;;;;;3.10;99.90;;;;;;5055653;28;19921;-79
2021/12/08 00:27:55;;;;;;;;;;;3.10;99.90;;;;;;5055419;28;19921;-79
2021/12/08 00:30:21;;;;;;;;;;;3.10;99.90;;;;;;5036991;28;19966;-79
2021/12/08 00:32:47;;;;;;;;;;;3.10;99.90;;;;;;5054867;28;20011;-79
2021/12/08 00:35:13;;;;;;;;;;;3.20;99.90;;;;;;5054478;28;19971;-79
2021/12/08 00:37:40;;;;;;;;;;;3.20;99.90;;;;;;5036242;28;20382;-79
2021/12/08 00:40:07;;;;;;;;;;;3.20;99.90;;;;;;5020119;28;19924;-79
2021/12/08 00:42:32;;;;;;;;;;;3.20;99.90;;;;;;5055556;28;19943;-79
2021/12/08 00:44:59;;;;;;;;;;;3.20;99.90;;;;;;5055197;28;20359;-79
2021/12/08 00:47:25;;;;;;;;;;;3.20;99.90;;;;;;5037800;28;19970;-80
2021/12/08 00:49:51;;;;;;;;;;;3.20;99.90;;;;;;5054624;28;20044;-80
2021/12/08 00:52:16;;;;;;;;;;;3.20;99.90;;;;;;5055630;28;19921;-80
2021/12/08 00:54:42;;;;;;;;;;;3.30;99.90;;;;;;5038236;28;19921;-79
2021/12/08 00:57:08;;;;;;;;;;;3.40;99.90;;;;;;5058791;28;19920;-79
2021/12/08 00:59:34;;;;;;;;;;;3.30;99.90;;;;;;5040532;28;19920;-79
2021/12/08 01:02:02;;;;;;;;;;;3.20;99.90;;;;;;5058435;28;19921;-80
2021/12/08 01:04:29;;;;;;;;;;;3.20;99.90;;;;;;5058467;28;19920;-79
2021/12/08 01:06:55;;;;;;;;;;;3.20;99.90;;;;;;5059959;28;19921;-80
2021/12/08 01:09:21;;;;;;;;;;;4.20;99.90;;;;;;5025765;28;19928;-79
2021/12/08 01:11:47;;;;;;;;;;;3.20;99.90;;;;;;5051806;22;20287;-79
2021/12/08 01:14:13;;;;;;;;;;;3.20;99.90;;;;;;5038190;28;19921;-79
2021/12/08 01:16:39;;;;;;;;;;;3.20;99.90;;;;;;5038185;28;20008;-79
2021/12/08 01:19:04;;;;;;;;;;;3.20;99.90;;;;;;5004342;28;19921;-79
2021/12/08 01:21:30;;;;;;;;;;;3.20;99.90;;;;;;5003916;28;19921;-79
2021/12/08 01:23:56;;;;;;;;;;;3.20;99.90;;;;;;5038204;28;20353;-79
2021/12/08 01:26:21;;;;;;;;;;;3.20;99.90;;;;;;5038670;28;19928;-79
2021/12/08 01:28:47;;;;;;;;;;;3.20;99.90;;;;;;5021245;28;19928;-79
2021/12/08 01:31:12;;;;;;;;;;;3.20;99.90;;;;;;5037833;28;19921;-80
2021/12/08 01:33:38;;;;;;;;;;;3.20;99.90;;;;;;5038353;28;20386;-80
2021/12/08 01:36:04;;;;;;;;;;;3.30;99.90;;;;;;5038256;28;19921;-79
2021/12/08 01:38:30;;;;;;;;;;;3.30;99.90;;;;;;5037572;28;19988;-79
2021/12/08 01:40:56;;;;;;;;;;;3.20;99.90;;;;;;5037750;28;19929;-81
2021/12/08 01:43:27;;;;;;;;;;;3.30;99.90;;;;;;5037978;28;19921;-79
2021/12/08 01:46:01;;;;;;;;;;;3.30;99.90;;;;;;5037498;28;20275;-79
2021/12/08 01:48:28;;;;;;;;;;;3.20;99.90;;;;;;5020005;28;19925;-79
2021/12/08 01:50:57;;;;;;;;;;;3.30;99.90;;;;;;5037282;28;20348;-79
2021/12/08 01:53:23;;;;;;;;;;;3.20;99.90;;;;;;5019210;28;19921;-79
2021/12/08 01:55:49;;;;;;;;;;;3.30;99.90;;;;;;5037628;28;19928;-80
2021/12/08 01:58:15;;;;;;;;;;;3.30;99.90;;;;;;5037852;28;19928;-79
2021/12/08 02:01:01;;;;;;;;;;;3.30;99.90;;;;;;5020146;28;20283;-79
2021/12/08 02:03:27;;;;;;;;;;;3.30;99.90;;;;;;5037857;28;19984;-80
2021/12/08 02:05:52;;;;;;;;;;;3.40;99.90;;;;;;5038092;28;20387;-79
2021/12/08 02:08:18;;;;;;;;;;;3.40;99.90;;;;;;5037585;28;19927;-79
2021/12/08 02:10:44;;;;;;;;;;;3.40;99.90;;;;;;5037057;28;19925;-79
2021/12/08 02:13:10;;;;;;;;;;;3.40;99.90;;;;;;5037220;28;20333;-79
2021/12/08 02:15:37;;;;;;;;;;;3.40;99.90;;;;;;5003533;28;19921;-79
2021/12/08 02:18:04;;;;;;;;;;;3.40;99.90;;;;;;5038148;28;19956;-80
2021/12/08 02:20:29;;;;;;;;;;;3.50;99.90;;;;;;5019309;28;20004;-79
2021/12/08 02:22:55;;;;;;;;;;;3.50;99.90;;;;;;5037482;28;19976;-79
2021/12/08 02:25:22;;;;;;;;;;;3.50;99.90;;;;;;5019783;28;19943;-79
2021/12/08 02:27:48;;;;;;;;;;;3.60;99.90;;;;;;5037878;28;19928;-79
2021/12/08 02:30:27;;;;;;;;;;;4.00;99.90;;;;;;5040559;28;19921;-79
2021/12/08 02:46:44;;;;;;;;;;;3.80;99.90;;;;;;5038070;28;19924;-80
2021/12/08 02:49:09;;;;;;;;;;;3.80;99.90;;;;;;5037460;28;19921;-79
2021/12/08 02:51:36;;;;;;;;;;;3.80;99.90;;;;;;5037011;28;19928;-79
2021/12/08 02:54:02;;;;;;;;;;;3.80;99.90;;;;;;5037182;28;19968;-80
2021/12/08 02:56:28;;;;;;;;;;;3.80;99.90;;;;;;5037361;28;20011;-79
2021/12/08 02:58:53;;;;;;;;;;;3.90;99.90;;;;;;5037162;28;20409;-79
2021/12/08 03:01:19;;;;;;;;;;;3.90;99.90;;;;;;5037455;28;20003;-79
2021/12/08 03:03:45;;;;;;;;;;;3.90;99.90;;;;;;5036925;28;19924;-79
2021/12/08 03:06:11;;;;;;;;;;;3.90;99.90;;;;;;5036998;28;20060;-79
2021/12/08 03:08:37;;;;;;;;;;;3.90;99.90;;;;;;5018949;28;19925;-79
2021/12/08 03:11:03;;;;;;;;;;;4.00;99.90;;;;;;5037375;28;20282;-79
2021/12/08 03:13:37;;;;;;;;;;;3.90;99.90;;;;;;5037969;28;20382;-79
2021/12/08 03:16:04;;;;;;;;;;;4.00;99.90;;;;;;5038040;28;19925;-79
2021/12/08 03:18:34;;;;;;;;;;;4.00;99.90;;;;;;5036581;28;19921;-79
2021/12/08 03:21:00;;;;;;;;;;;4.00;99.90;;;;;;5036443;28;19921;-80
2021/12/08 03:23:33;;;;;;;;;;;4.10;99.90;;;;;;5018551;28;19928;-80
2021/12/08 03:26:01;;;;;;;;;;;4.00;99.90;;;;;;5037062;28;19988;-80
2021/12/08 03:28:31;;;;;;;;;;;4.00;99.90;;;;;;5038230;28;19932;-79
2021/12/08 03:31:02;;;;;;;;;;;4.10;99.90;;;;;;5037307;28;19975;-79
2021/12/08 03:33:28;;;;;;;;;;;4.30;99.90;;;;;;5037618;28;20011;-80
2021/12/08 03:35:54;;;;;;;;;;;4.10;99.90;;;;;;5036276;28;20039;-80
2021/12/08 03:38:20;;;;;;;;;;;4.20;99.90;;;;;;5037035;28;19936;-79
2021/12/08 03:40:47;;;;;;;;;;;4.20;99.90;;;;;;5036841;28;19927;-79
2021/12/08 03:43:13;;;;;;;;;;;4.20;99.90;;;;;;5036581;28;20367;-80
2021/12/08 03:45:44;;;;;;;;;;;4.20;99.90;;;;;;5036172;28;19921;-79
2021/12/08 03:48:11;;;;;;;;;;;4.20;99.90;;;;;;5036567;28;20004;-80
2021/12/08 03:50:38;;;;;;;;;;;4.30;99.90;;;;;;5018707;28;19925;-79
2021/12/08 03:53:08;;;;;;;;;;;4.30;99.90;;;;;;5037133;28;19967;-79
2021/12/08 03:55:34;;;;;;;;;;;4.60;99.90;;;;;;5018671;28;19921;-79
2021/12/08 03:58:00;;;;;;;;;;;4.30;99.90;;;;;;5037115;28;20004;-80
2021/12/08 04:00:27;;;;;;;;;;;4.70;99.90;;;;;;5036950;28;20342;-80
2021/12/08 04:02:53;;;;;;;;;;;4.40;99.90;;;;;;5019450;28;19924;-79
2021/12/08 04:05:22;;;;;;;;;;;4.40;99.90;;;;;;5036346;28;19928;-79
2021/12/08 04:07:48;;;;;;;;;;;4.40;99.90;;;;;;5001837;28;19924;-79
2021/12/08 04:10:19;;;;;;;;;;;4.40;99.90;;;;;;5018565;28;19928;-80
2021/12/08 04:12:50;;;;;;;;;;;4.50;99.90;;;;;;5036685;28;19935;-79
2021/12/08 04:15:16;;;;;;;;;;;4.40;99.90;;;;;;5035887;28;19928;-80
2021/12/08 04:17:45;;;;;;;;;;;4.40;99.90;;;;;;5018187;28;19935;-80
2021/12/08 04:20:16;;;;;;;;;;;4.40;99.90;;;;;;5018630;28;19975;-80
2021/12/08 04:22:43;;;;;;;;;;;4.40;99.90;;;;;;5036074;28;19921;-80
2021/12/08 04:25:11;;;;;;;;;;;4.40;99.90;;;;;;5035515;28;19921;-79
2021/12/08 04:27:38;;;;;;;;;;;4.60;99.90;;;;;;5037128;28;19925;-79
2021/12/08 04:30:05;;;;;;;;;;;4.40;99.90;;;;;;5038068;28;19921;-79
2021/12/08 04:32:32;;;;;;;;;;;4.40;99.90;;;;;;5039647;28;20020;-79
2021/12/08 04:34:59;;;;;;;;;;;4.40;99.90;;;;;;5022338;28;19989;-79
2021/12/08 04:37:30;;;;;;;;;;;4.40;99.90;;;;;;5040466;28;19939;-79
2021/12/08 04:40:18;;;;;;;;;;;4.70;99.90;;;;;;5038972;28;19921;-79
2021/12/08 04:42:57;;;;;;;;;;;4.40;99.90;;;;;;5022882;28;19917;-79
2021/12/08 04:45:32;;;;;;;;;;;4.60;99.90;;;;;;5039887;28;19921;-80
2021/12/08 04:48:36;;;;;;;;;;;4.40;99.90;;;;;;5022392;28;19917;-79
2021/12/08 04:51:11;;;;;;;;;;;4.70;99.90;;;;;;5038820;28;19928;-80
2021/12/08 05:09:28;;;;;;;;;;;4.60;99.90;;;;;;5037394;28;19921;-79
2021/12/08 05:12:14;;;;;;;;;;;4.50;99.90;;;;;;5036640;28;19921;-79
2021/12/08 05:14:43;;;;;;;;;;;4.60;99.90;;;;;;5037408;28;20024;-80
2021/12/08 05:17:14;;;;;;;;;;;4.70;99.90;;;;;;5037664;28;19921;-79
2021/12/08 05:19:41;;;;;;;;;;;4.60;99.90;;;;;;5022365;28;19960;-79
2021/12/08 05:22:12;;;;;;;;;;;4.70;99.90;;;;;;5037112;28;20406;-80
2021/12/08 05:24:40;;;;;;;;;;;4.70;99.90;;;;;;5021037;28;19932;-79
2021/12/08 05:27:08;;;;;;;;;;;4.80;99.90;;;;;;5037277;28;19920;-80
2021/12/08 05:29:36;;;;;;;;;;;4.80;99.90;;;;;;5020050;28;19928;-79
2021/12/08 05:32:03;;;;;;;;;;;4.80;99.90;;;;;;5003596;28;20029;-80
2021/12/08 05:34:28;;;;;;;;;;;4.70;99.90;;;;;;5038373;28;19964;-79
2021/12/08 05:36:54;;;;;;;;;;;4.70;99.90;;;;;;5038526;28;20375;-79
2021/12/08 05:39:22;;;;;;;;;;;5.30;99.90;;;;;;5038751;28;19921;-79
2021/12/08 05:41:52;;;;;;;;;;;4.60;99.90;;;;;;5020676;28;20252;-79
2021/12/08 05:44:18;;;;;;;;;;;4.60;99.90;;;;;;5038425;28;19928;-80
2021/12/08 05:46:44;;;;;;;;;;;4.90;99.90;;;;;;5038554;28;20355;-80
2021/12/08 05:49:12;;;;;;;;;;;4.40;99.90;;;;;;5038517;28;19921;-79
2021/12/08 05:51:39;;;;;;;;;;;4.40;99.90;;;;;;5037988;28;19935;-80
2021/12/08 05:54:09;;;;;;;;;;;4.30;99.90;;;;;;5038800;28;20008;-79
2021/12/08 05:56:35;;;;;;;;;;;4.20;99.90;;;;;;5038860;28;20016;-79
2021/12/08 05:59:01;;;;;;;;;;;4.90;99.90;;;;;;5020417;28;20494;-80
2021/12/08 06:01:29;;;;;;;;;;;4.20;99.90;;;;;;5038801;28;19925;-79
2021/12/08 06:03:55;;;;;;;;;;;4.20;99.90;;;;;;5038719;28;19920;-80
2021/12/08 06:06:21;;;;;;;;;;;4.20;99.90;;;;;;5038689;28;19928;-79
2021/12/08 06:08:48;;;;;;;;;;;4.30;99.90;;;;;;5038272;28;20363;-79
2021/12/08 06:11:13;;;;;;;;;;;4.30;99.90;;;;;;5038021;28;19920;-79
2021/12/08 06:13:40;;;;;;;;;;;4.30;99.90;;;;;;5038186;28;19921;-79
2021/12/08 06:16:08;;;;;;;;;;;4.40;99.90;;;;;;5038439;28;19960;-80
2021/12/08 06:18:38;;;;;;;;;;;4.30;99.90;;;;;;5038569;28;19975;-79
2021/12/08 06:21:07;;;;;;;;;;;4.40;99.90;;;;;;5037852;28;19921;-79
2021/12/08 06:23:34;;;;;;;;;;;5.10;99.90;;;;;;5020323;28;19974;-79
2021/12/08 06:25:59;;;;;;;;;;;4.20;99.90;;;;;;5037625;28;20004;-80
2021/12/08 06:28:25;;;;;;;;;;;4.20;99.90;;;;;;5019336;28;20356;-80
2021/12/08 06:30:51;;;;;;;;;;;4.30;99.90;;;;;;5037690;28;20284;-79
2021/12/08 06:33:19;;;;;;;;;;;4.30;99.90;;;;;;5019814;28;19968;-79
2021/12/08 06:35:46;;;;;;;;;;;4.40;99.90;;;;;;5037423;28;19921;-79
2021/12/08 06:38:12;;;;;;;;;;;4.40;99.90;;;;;;5037331;28;19921;-79
2021/12/08 06:40:40;;;;;;;;;;;5.20;99.90;;;;;;5019693;28;19923;-79
2021/12/08 06:43:07;;;;;;;;;;;4.40;99.90;;;;;;5037432;28;19925;-79
2021/12/08 06:45:38;;;;;;;;;;;4.40;99.90;;;;;;5037185;28;19929;-79
2021/12/08 06:48:06;;;;;;;;;;;4.50;99.90;;;;;;5038312;28;19921;-79
2021/12/08 06:50:40;;;;;;;;;;;4.50;99.90;;;;;;5039156;28;20047;-79
2021/12/08 06:53:06;;;;;;;;;;;4.60;99.90;;;;;;5019659;28;19921;-79
2021/12/08 06:55:33;;;;;;;;;;;4.60;99.90;;;;;;5038422;28;19921;-79
2021/12/08 06:58:01;;;;;;;;;;;4.60;99.90;;;;;;5037997;28;19975;-79
2021/12/08 07:00:55;;;;;;;;;;;4.60;99.90;;;;;;5038247;28;19925;-79
2021/12/08 07:03:36;;;;;;;;;;;4.60;99.90;;;;;;5037734;28;19925;-79
2021/12/08 07:06:07;;;;;;;;;;;4.60;99.90;;;;;;5020388;28;19975;-80
2021/12/08 07:08:36;;;;;;;;;;;4.70;99.90;;;;;;5036757;28;20333;-79
2021/12/08 07:11:02;;;;;;;;;;;4.70;99.90;;;;;;5018911;28;20406;-80
2021/12/08 07:13:29;;;;;;;;;;;4.60;99.90;;;;;;5038888;28;20303;-79
2021/12/08 07:16:21;;;;;;;;;;;4.40;99.90;;;;;;5038752;28;19920;-79
2021/12/08 07:18:54;;;;;;;;;;;4.40;99.90;;;;;;4996950;28;19941;-79
2021/12/08 07:21:22;;;;;;;;;;;4.40;99.90;;;;;;4997322;28;19922;-80
2021/12/08 07:23:56;;;;;;;;;;;4.30;99.90;;;;;;5000676;28;19933;-79
2021/12/08 07:26:25;;;;;;;;;;;4.30;99.90;;;;;;4996467;28;19929;-80
2021/12/08 07:28:51;;;;;;;;;;;4.20;99.90;;;;;;4995762;28;19937;-79
2021/12/08 07:31:26;;;;;;;;;;;4.20;99.90;;;;;;4996302;28;19925;-80
2021/12/08 07:33:53;;;;;;;;;;;4.20;99.90;;;;;;4995848;28;20300;-79
2021/12/08 07:36:20;;;;;;;;;;;5.10;99.90;;;;;;4979781;28;19972;-79
2021/12/08 07:38:47;;;;;;;;;;;4.20;99.90;;;;;;4995680;28;19921;-79
2021/12/08 07:41:19;;;;;;;;;;;4.40;99.90;;;;;;4991580;28;20339;-80
2021/12/08 07:43:47;;;;;;;;;;;4.20;99.90;;;;;;4977587;28;19917;-80
2021/12/08 07:46:15;;;;;;;;;;;4.20;99.90;;;;;;4962347;28;19972;-79
2021/12/08 07:48:46;;;;;;;;;;;4.10;99.90;;;;;;4994785;28;19922;-79
2021/12/08 07:51:32;;;;;;;;;;;4.10;99.90;;;;;;4975234;28;19922;-80
2021/12/08 07:53:58;;;;;;;;;;;4.60;99.90;;;;;;4977857;28;20375;-79
2021/12/08 07:56:24;;;;;;;;;;;4.10;99.90;;;;;;5029454;28;20003;-80
2021/12/08 07:58:55;;;;;;;;;;;4.10;99.90;;;;;;5026714;28;19921;-80
2021/12/08 08:01:24;;;;;;;;;;;4.10;99.90;;;;;;5018247;28;19936;-79
2021/12/08 08:03:50;;;;;;;;;;;4.10;99.90;;;;;;5035903;28;19928;-79
2021/12/08 08:06:19;;;;;;;;;;;4.10;99.90;;;;;;5036658;28;19987;-79
2021/12/08 08:08:45;;;;;;;;;;;4.10;99.90;;;;;;5036630;28;19964;-80
2021/12/08 08:11:13;;;;;;;;;;;4.10;99.90;;;;;;5036342;28;19921;-80
2021/12/08 08:13:39;;;;;;;;;;;4.20;99.90;;;;;;5056389;28;20011;-79
2021/12/08 08:16:07;;;;;;;;;;;4.10;99.90;;;;;;5056136;28;19972;-79
2021/12/08 08:18:35;;;;;;;;;;;4.10;99.90;;;;;;5056588;28;19921;-79
2021/12/08 08:21:03;;;;;;;;;;;4.10;99.90;;;;;;5056027;28;20011;-80
2021/12/08 08:23:31;;;;;;;;;;;4.10;99.90;;;;;;5056037;28;19943;-80
2021/12/08 08:25:57;;;;;;;;;;;4.00;99.90;;;;;;5037930;28;19932;-79
2021/12/08 08:28:23;;;;;;;;;;;4.00;99.90;;;;;;5037985;28;19967;-80
2021/12/08 08:30:55;;;;;;;;;;;3.90;99.90;;;;;;5056404;28;19952;-79
2021/12/08 08:33:22;;;;;;;;;;;3.80;99.90;;;;;;5055906;28;20007;-79
2021/12/08 08:35:52;;;;;;;;;;;3.80;99.90;;;;;;5056165;28;20291;-79
2021/12/08 08:38:26;;;;;;;;;;;3.80;99.90;;;;;;5056218;28;19966;-79
2021/12/08 08:40:57;;;;;;;;;;;3.80;99.90;;;;;;5055424;28;19920;-80
2021/12/08 08:43:23;;;;;;;;;;;3.80;99.90;;;;;;5055603;28;19943;-79
2021/12/08 08:45:54;;;;;;;;;;;3.80;99.90;;;;;;5056048;28;20034;-80
2021/12/08 08:48:22;;;;;;;;;;;3.80;99.90;;;;;;5055848;28;19921;-79
2021/12/08 08:50:53;;;;;;;;;;;3.80;99.90;;;;;;5037606;28;19967;-80
2021/12/08 08:53:22;;;;;;;;;;;3.90;99.90;;;;;;5056102;28;19920;-80
2021/12/08 08:55:52;;;;;;;;;;;3.80;99.90;;;;;;5055826;28;19927;-79
2021/12/08 08:58:20;;;;;;;;;;;3.80;99.90;;;;;;5056312;28;20335;-79
2021/12/08 09:00:51;;;;;;;;;;;3.80;99.90;;;;;;5055237;28;19921;-79
2021/12/08 09:03:18;;;;;;;;;;;3.80;99.90;;;;;;5055236;28;19924;-80
2021/12/08 09:05:49;;;;;;;;;;;3.80;99.90;;;;;;5055245;28;19943;-80
2021/12/08 09:08:15;;;;;;;;;;;3.80;99.90;;;;;;5055732;28;20330;-79
2021/12/08 09:10:53;;;;;;;;;;;3.80;99.90;;;;;;5055593;28;20016;-79
2021/12/08 09:13:26;;;;;;;;;;;3.80;99.90;;;;;;5055614;28;20255;-79
2021/12/08 09:15:55;;;;;;;;;;;3.80;99.90;;;;;;5057022;28;19996;-80
2021/12/08 09:18:29;;;;;;;;;;;3.80;99.90;;;;;;5059226;28;19970;-80
2021/12/08 09:21:09;;;;;;;;;;;3.90;99.90;;;;;;5060026;28;19921;-79
2021/12/08 09:23:40;;;;;;;;;;;4.00;99.90;;;;;;5059867;28;19927;-79
2021/12/08 09:26:08;;;;;;;;;;;4.10;99.90;;;;;;5059431;28;19917;-80
2021/12/08 09:28:36;;;;;;;;;;;4.30;99.90;;;;;;5041584;28;19948;-80
2021/12/08 09:31:06;;;;;;;;;;;4.40;99.90;;;;;;5043074;28;20015;-80
2021/12/08 09:33:38;;;;;;;;;;;4.50;99.90;;;;;;5041958;28;20364;-79
2021/12/08 09:36:08;;;;;;;;;;;4.50;99.90;;;;;;5060097;28;19956;-80
2021/12/08 09:38:36;;;;;;;;;;;4.60;99.90;;;;;;5060174;28;19928;-79
2021/12/08 09:41:10;;;;;;;;;;;4.60;99.90;;;;;;5060206;28;20022;-79
2021/12/08 09:43:41;;;;;;;;;;;4.60;99.90;;;;;;5060062;28;19921;-80
2021/12/08 09:46:09;;;;;;;;;;;4.70;99.90;;;;;;5059899;28;19950;-79
2021/12/08 09:48:38;;;;;;;;;;;4.70;99.90;;;;;;5060773;28;19927;-79
2021/12/08 09:51:04;;;;;;;;;;;4.70;99.90;;;;;;5060708;28;19921;-80
2021/12/08 09:53:30;;;;;;;;;;;5.00;99.90;;;;;;5060331;28;19920;-79
2021/12/08 09:55:56;;;;;;;;;;;4.70;99.90;;;;;;5060242;28;20298;-80
2021/12/08 09:58:21;;;;;;;;;;;4.70;99.90;;;;;;5060334;28;19967;-80
2021/12/08 10:00:49;;;;;;;;;;;4.70;99.90;;;;;;5060913;28;19924;-79
2021/12/08 10:03:16;;;;;;;;;;;4.70;99.90;;;;;;5060561;28;20387;-79
2021/12/08 10:05:43;;;;;;;;;;;5.60;99.90;;;;;;5060204;28;19920;-79
2021/12/08 10:08:09;;;;;;;;;;;4.70;99.90;;;;;;5041932;28;19944;-80
2021/12/08 10:10:35;;;;;;;;;;;4.70;99.90;;;;;;5059662;28;19960;-79
2021/12/08 10:13:01;;;;;;;;;;;5.50;99.90;;;;;;5024796;28;20435;-80
2021/12/08 10:15:27;;;;;;;;;;;4.80;99.90;;;;;;5060590;28;20025;-79
2021/12/08 10:17:55;;;;;;;;;;;4.80;99.90;;;;;;5042021;28;19928;-80
2021/12/08 10:20:22;;;;;;;;;;;4.90;99.90;;;;;;5060305;28;19959;-80
2021/12/08 10:23:07;;;;;;;;;;;4.90;99.90;;;;;;5041854;28;19920;-79
2021/12/08 10:25:34;;;;;;;;;;;5.00;99.90;;;;;;5041255;28;19964;-80
2021/12/08 10:28:09;;;;;;;;;;;4.90;99.90;;;;;;5057349;28;20371;-80
2021/12/08 10:30:53;;;;;;;;;;;5.20;99.90;;;;;;5058885;28;20041;-79
2021/12/08 10:33:45;;;;;;;;;;;5.20;99.90;;;;;;5058398;28;19966;-79
2021/12/08 10:36:23;;;;;;;;;;;5.20;99.90;;;;;;5040439;28;19921;-79
2021/12/08 10:38:49;;;;;;;;;;;5.30;99.90;;;;;;5040635;28;19921;-80
2021/12/08 10:41:14;;;;;;;;;;;5.70;99.90;;;;;;5058491;28;19966;-80
2021/12/08 10:43:40;;;;;;;;;;;5.30;99.90;;;;;;5058498;28;20372;-80
2021/12/08 10:46:07;;;;;;;;;;;6.00;99.90;;;;;;5058225;28;19944;-80
2021/12/08 10:48:41;;;;;;;;;;;5.40;99.90;;;;;;5059394;28;19920;-80
2021/12/08 10:54:27;;;;;;;;;;;5.50;99.90;;;;;;5058867;28;19924;-80
2021/12/08 10:56:56;;;;;;;;;;;5.50;99.90;;;;;;5040897;28;19921;-80
2021/12/08 10:59:23;;;;;;;;;;;6.10;99.90;;;;;;5023432;28;19921;-80
2021/12/08 11:01:49;;;;;;;;;;;5.50;99.90;;;;;;5057555;28;19924;-80
2021/12/08 11:04:16;;;;;;;;;;;5.60;99.90;;;;;;5058403;28;19920;-79
2021/12/08 11:06:42;;;;;;;;;;;5.60;99.90;;;;;;5058526;28;20370;-79
2021/12/08 11:09:26;;;;;;;;;;;6.10;99.90;;;;;;5058258;28;19927;-80
2021/12/08 11:12:01;;;;;;;;;;;5.60;99.90;;;;;;5040047;28;20375;-79
2021/12/08 11:14:27;;;;;;;;;;;5.60;99.90;;;;;;5041414;28;19924;-80
2021/12/08 11:16:52;;;;;;;;;;;5.60;99.90;;;;;;5056855;28;19967;-80
2021/12/08 11:19:19;;;;;;;;;;;6.30;99.90;;;;;;5058088;28;20325;-80
2021/12/08 11:21:48;;;;;;;;;;;5.60;99.90;;;;;;5057589;28;19920;-79
2021/12/08 11:24:20;;;;;;;;;;;6.00;99.90;;;;;;5058201;28;19959;-80
2021/12/08 11:26:48;;;;;;;;;;;5.60;99.90;;;;;;5056641;28;19921;-80
2021/12/08 11:29:15;;;;;;;;;;;5.60;99.90;;;;;;5023724;28;20311;-80
2021/12/08 11:31:41;;;;;;;;;;;5.70;99.90;;;;;;5057748;28;20336;-80
2021/12/08 11:34:13;;;;;;;;;;;5.60;99.90;;;;;;5057932;28;20022;-80
2021/12/08 11:36:39;;;;;;;;;;;5.60;99.90;;;;;;5039926;28;20386;-79
2021/12/08 11:39:16;;;;;;;;;;;5.60;99.90;;;;;;5041134;28;19964;-79
2021/12/08 11:41:53;;;;;;;;;;;5.60;99.90;;;;;;5061572;28;19935;-80
2021/12/08 11:44:20;;;;;;;;;;;5.60;99.90;;;;;;5058223;28;20002;-80
2021/12/08 11:46:46;;;;;;;;;;;5.60;99.90;;;;;;5058315;28;19925;-80
2021/12/08 11:49:11;;;;;;;;;;;5.60;99.90;;;;;;5056334;28;19974;-80
2021/12/08 11:51:43;;;;;;;;;;;5.80;99.90;;;;;;5057276;28;19924;-80
2021/12/08 11:54:27;;;;;;;;;;;5.60;99.90;;;;;;5039491;28;20363;-80
2021/12/08 11:56:59;;;;;;;;;;;5.60;99.90;;;;;;5040177;28;19967;-80
2021/12/08 11:59:25;;;;;;;;;;;5.70;99.90;;;;;;5039490;28;19920;-80
2021/12/08 12:01:50;;;;;;;;;;;5.70;99.90;;;;;;5057945;28;20358;-80
2021/12/08 12:04:16;;;;;;;;;;;5.50;99.90;;;;;;5058113;28;19987;-80
2021/12/08 12:06:42;;;;;;;;;;;5.60;99.90;;;;;;5058091;28;19916;-80
2021/12/08 12:09:09;;;;;;;;;;;6.00;99.90;;;;;;5057470;28;19921;-80
2021/12/08 12:11:35;;;;;;;;;;;6.20;99.90;;;;;;5036255;28;19921;-80
2021/12/08 12:14:01;;;;;;;;;;;5.60;99.90;;;;;;5036515;28;19921;-81
2021/12/08 12:16:27;;;;;;;;;;;5.60;99.90;;;;;;5036376;28;19932;-80
2021/12/08 12:19:00;;;;;;;;;;;5.60;99.90;;;;;;5053255;28;19971;-80
2021/12/08 12:21:45;;;;;;;;;;;5.60;99.90;;;;;;5019780;28;20376;-80
2021/12/08 12:24:19;;;;;;;;;;;5.70;99.90;;;;;;5037211;28;20364;-80
2021/12/08 12:27:00;;;;;;;;;;;5.70;99.90;;;;;;5036483;28;20248;-80
2021/12/08 12:29:36;;;;;;;;;;;5.60;99.90;;;;;;5052773;28;19921;-80
2021/12/08 12:32:07;;;;;;;;;;;5.70;99.90;;;;;;5038276;28;19928;-80
2021/12/08 12:34:35;;;;;;;;;;;5.60;99.90;;;;;;5037793;28;19928;-80
2021/12/08 12:37:26;;;;;;;;;;;5.60;99.90;;;;;;5036172;28;19960;-80
2021/12/08 12:39:56;;;;;;;;;;;5.60;99.90;;;;;;5032387;28;20278;-80
2021/12/08 12:42:23;;;;;;;;;;;5.60;99.90;;;;;;5036478;28;19927;-80
2021/12/08 12:44:57;;;;;;;;;;;6.20;99.90;;;;;;5036340;28;19921;-80
2021/12/08 12:47:26;;;;;;;;;;;5.60;99.90;;;;;;5037479;28;19921;-80
2021/12/08 12:50:04;;;;;;;;;;;5.70;99.90;;;;;;5052741;28;19928;-80
2021/12/08 12:52:43;;;;;;;;;;;5.60;99.90;;;;;;5039890;28;19921;-80
2021/12/08 12:58:09;;;;;;;;;;;5.70;99.90;;;;;;5035462;28;19928;-79
2021/12/08 13:00:43;;;;;;;;;;;5.80;99.90;;;;;;4998807;28;19922;-80
2021/12/08 13:03:28;;;;;;;;;;;5.90;99.90;;;;;;4998410;28;19944;-80
2021/12/08 13:05:54;;;;;;;;;;;5.90;99.90;;;;;;4998210;28;20022;-79
2021/12/08 13:08:30;;;;;;;;;;;6.60;99.90;;;;;;4998490;28;19921;-80
2021/12/08 13:10:56;;;;;;;;;;;5.90;99.90;;;;;;4997895;28;20011;-79
2021/12/08 13:13:22;;;;;;;;;;;6.00;99.90;;;;;;4982233;28;19977;-80
2021/12/08 13:15:47;;;;;;;;;;;6.10;99.90;;;;;;4982806;28;19922;-80
2021/12/08 13:18:14;;;;;;;;;;;6.30;99.90;;;;;;4998525;28;20384;-80
2021/12/08 13:20:58;;;;;;;;;;;6.90;99.90;;;;;;4998837;28;19922;-80
2021/12/08 13:23:29;;;;;;;;;;;6.20;99.90;;;;;;4998829;28;19933;-80
2021/12/08 13:26:07;;;;;;;;;;;6.50;99.90;;;;;;4998036;28;19921;-80
2021/12/08 13:29:02;;;;;;;;;;;6.70;99.90;;;;;;4998391;28;19937;-80
2021/12/08 13:31:47;;;;;;;;;;;6.50;99.90;;;;;;4997113;28;19932;-80
2021/12/08 13:34:14;;;;;;;;;;;6.50;99.90;;;;;;4997752;28;20384;-80
2021/12/08 13:36:40;;;;;;;;;;;6.30;99.90;;;;;;4997911;28;19917;-79
2021/12/08 13:39:09;;;;;;;;;;;6.30;99.90;;;;;;5040123;28;20433;-80
2021/12/08 13:41:36;;;;;;;;;;;6.20;99.90;;;;;;5039586;28;20387;-80
2021/12/08 13:44:18;;;;;;;;;;;6.60;99.90;;;;;;5021081;28;19921;-79
2021/12/08 13:46:45;;;;;;;;;;;6.30;99.90;;;;;;5021275;28;19920;-79
2021/12/08 13:49:16;;;;;;;;;;;6.50;99.90;;;;;;5039580;28;19925;-80
2021/12/08 13:52:00;;;;;;;;;;;6.70;99.90;;;;;;5041447;28;19983;-80
2021/12/08 13:54:31;;;;;;;;;;;6.90;99.90;;;;;;5021454;28;19975;-80
2021/12/08 13:56:57;;;;;;;;;;;6.90;99.90;;;;;;5039270;28;19921;-79
2021/12/08 13:59:41;;;;;;;;;;;7.10;99.90;;;;;;5039532;28;19929;-79
2021/12/08 14:02:19;;;;;;;;;;;6.80;99.90;;;;;;5038964;28;20373;-80
2021/12/08 14:04:44;;;;;;;;;;;6.60;99.90;;;;;;5039252;28;19928;-80
2021/12/08 14:07:18;;;;;;;;;;;6.70;99.90;;;;;;5038906;28;19921;-79
2021/12/08 14:09:43;;;;;;;;;;;6.40;99.90;;;;;;5039037;28;19921;-79
2021/12/08 14:12:09;;;;;;;;;;;6.30;99.90;;;;;;5020856;28;19927;-79
2021/12/08 14:14:34;;;;;;;;;;;6.30;99.90;;;;;;5039828;28;20368;-79
2021/12/08 14:17:00;;;;;;;;;;;6.20;99.90;;;;;;5039464;28;19928;-80
2021/12/08 14:19:36;;;;;;;;;;;6.00;99.90;;;;;;5021573;28;19927;-79
2021/12/08 14:22:02;;;;;;;;;;;6.10;99.90;;;;;;5039215;28;19978;-80
2021/12/08 14:24:27;;;;;;;;;;;5.80;99.90;;;;;;5039416;28;19921;-80
2021/12/08 14:26:53;;;;;;;;;;;5.70;99.90;;;;;;5037890;28;19928;-79
2021/12/08 14:29:20;;;;;;;;;;;5.60;99.90;;;;;;5038569;28;19952;-80
2021/12/08 14:31:47;;;;;;;;;;;5.60;99.90;;;;;;5038115;28;19921;-80
2021/12/08 14:34:23;;;;;;;;;;;5.60;99.90;;;;;;5038449;28;20012;-80
2021/12/08 14:37:03;;;;;;;;;;;5.50;99.90;;;;;;5038440;28;20016;-79
2021/12/08 14:39:37;;;;;;;;;;;5.40;99.90;;;;;;5038144;28;20371;-79
2021/12/08 14:42:04;;;;;;;;;;;5.40;99.90;;;;;;5038209;28;19917;-79
2021/12/08 14:44:31;;;;;;;;;;;5.40;99.90;;;;;;5002630;28;19927;-79
2021/12/08 14:47:00;;;;;;;;;;;5.30;99.90;;;;;;5037819;28;19979;-79
2021/12/08 14:49:30;;;;;;;;;;;5.30;99.90;;;;;;5038093;28;19964;-79
2021/12/08 14:51:56;;;;;;;;;;;5.20;99.90;;;;;;5037579;28;20383;-79
2021/12/08 14:54:26;;;;;;;;;;;5.40;99.90;;;;;;5037499;28;19921;-80
2021/12/08 14:57:06;;;;;;;;;;;5.10;99.90;;;;;;5037710;28;20051;-79
2021/12/08 14:59:32;;;;;;;;;;;5.10;99.90;;;;;;5037799;28;19932;-79
2021/12/08 15:01:59;;;;;;;;;;;5.10;99.90;;;;;;5037040;28;19928;-80
2021/12/08 15:04:24;;;;;;;;;;;5.10;99.90;;;;;;5038226;28;19948;-80
2021/12/08 15:06:57;;;;;;;;;;;5.20;99.90;;;;;;5019955;28;19921;-80
2021/12/08 15:09:25;;;;;;;;;;;5.20;99.90;;;;;;5037893;28;19928;-80
2021/12/08 15:11:54;;;;;;;;;;;5.10;99.90;;;;;;5037626;28;19932;-80
2021/12/08 15:14:20;;;;;;;;;;;5.00;99.90;;;;;;5037940;28;19921;-80
2021/12/08 15:16:46;;;;;;;;;;;5.00;99.90;;;;;;5038084;28;19944;-80
2021/12/08 15:19:13;;;;;;;;;;;5.10;99.90;;;;;;5037514;28;20295;-80
2021/12/08 15:21:40;;;;;;;;;;;4.80;99.90;;;;;;5019230;28;20016;-80